createdAt,value
2023-02-01T00:02:55.449Z,81.64
2023-02-01T00:07:56.899Z,81.30
2023-02-01T00:12:58.342Z,81.20
2023-02-01T00:17:59.797Z,81.45
2023-02-01T00:23:01.279Z,81.30
2023-02-01T00:28:02.820Z,81.28
2023-02-01T00:33:04.323Z,81.45
2023-02-01T00:38:05.791Z,81.04
2023-02-01T00:43:07.247Z,80.91
2023-02-01T00:48:08.716Z,80.44
2023-02-01T00:53:11.411Z,80.93
2023-02-01T00:58:13.169Z,80.96
2023-02-01T01:03:20.269Z,80.62
2023-02-01T01:08:21.714Z,80.36
2023-02-01T01:13:23.693Z,81.16
2023-02-01T01:18:25.302Z,80.94
2023-02-01T01:23:27.452Z,80.89
2023-02-01T01:28:28.972Z,80.78
2023-02-01T01:33:30.601Z,80.47
2023-02-01T01:38:32.043Z,80.01
2023-02-01T01:44:00.576Z,79.88
2023-02-01T01:49:21.392Z,80.17
2023-02-01T01:54:28.480Z,79.95
2023-02-01T01:59:32.309Z,79.41
2023-02-01T02:04:35.532Z,79.24
2023-02-01T02:09:38.502Z,78.59
2023-02-01T02:14:40.334Z,77.91
2023-02-01T02:20:06.289Z,77.95
2023-02-01T02:25:39.304Z,77.26
2023-02-01T02:31:26.317Z,76.61
2023-02-01T02:36:49.438Z,76.73
2023-02-01T02:42:25.330Z,76.53
2023-02-01T02:47:37.318Z,76.30
2023-02-01T02:53:04.968Z,76.25
2023-02-01T02:58:26.934Z,75.96
2023-02-01T03:03:47.003Z,75.92
2023-02-01T03:08:48.600Z,76.01
2023-02-01T03:14:01.142Z,76.72
2023-02-01T03:19:08.127Z,76.54
2023-02-01T03:24:16.229Z,76.44
2023-02-01T03:29:24.038Z,76.36
2023-02-01T03:34:28.643Z,76.64
2023-02-01T03:40:01.701Z,76.43
2023-02-01T03:45:06.123Z,76.42
2023-02-01T03:50:26.392Z,76.91
2023-02-01T03:55:29.672Z,77.40
2023-02-01T04:00:31.318Z,77.18
2023-02-01T04:05:33.787Z,76.95
2023-02-01T04:10:35.349Z,76.57
2023-02-01T04:15:37.087Z,76.88
2023-02-01T04:20:38.597Z,76.54
2023-02-01T04:25:40.059Z,76.02
2023-02-01T04:30:41.627Z,75.47
2023-02-01T04:35:43.263Z,75.28
2023-02-01T04:40:47.356Z,75.46
2023-02-01T04:45:50.157Z,75.22
2023-02-01T04:50:52.158Z,75.00
2023-02-01T04:55:53.596Z,74.62
2023-02-01T05:00:55.047Z,75.00
2023-02-01T05:05:56.758Z,74.13
2023-02-01T05:10:59.776Z,73.81
2023-02-01T05:16:01.307Z,73.85
2023-02-01T05:21:03.511Z,73.77
2023-02-01T05:26:05.193Z,73.73
2023-02-01T05:31:11.325Z,73.76
2023-02-01T05:36:12.926Z,73.10
2023-02-01T05:41:14.373Z,72.87
2023-02-01T05:46:16.495Z,72.55
2023-02-01T05:51:18.071Z,72.80
2023-02-01T05:56:19.553Z,73.03
2023-02-01T06:01:21.019Z,72.22
2023-02-01T06:06:22.441Z,72.51
2023-02-01T06:11:32.350Z,72.45
2023-02-01T06:16:34.815Z,72.89
2023-02-01T06:21:37.413Z,73.29
2023-02-01T06:26:40.043Z,73.45
2023-02-01T06:31:43.464Z,73.17
2023-02-01T06:36:44.979Z,73.22
2023-02-01T06:41:50.354Z,73.27
2023-02-01T06:46:51.896Z,73.13
2023-02-01T06:51:53.346Z,73.31
2023-02-01T06:56:54.912Z,73.23
2023-02-01T07:01:56.440Z,72.56
2023-02-01T07:06:58.003Z,72.33
2023-02-01T07:11:59.441Z,71.73
2023-02-01T07:17:00.908Z,71.55
2023-02-01T07:22:02.437Z,72.00
2023-02-01T07:27:04.091Z,72.02
2023-02-01T07:32:06.362Z,71.60
2023-02-01T07:37:07.875Z,71.06
2023-02-01T07:42:09.420Z,71.14
2023-02-01T07:47:10.895Z,70.94
2023-02-01T07:52:14.129Z,70.89
2023-02-01T07:57:15.635Z,71.26
2023-02-01T08:02:17.230Z,70.83
2023-02-01T08:07:18.825Z,70.17
2023-02-01T08:12:20.267Z,70.00
2023-02-01T08:17:21.742Z,69.79
2023-02-01T08:22:23.319Z,69.87
2023-02-01T08:27:24.818Z,70.07
2023-02-01T08:32:27.459Z,70.39
2023-02-01T08:37:28.964Z,69.93
2023-02-01T08:42:49.510Z,69.88
2023-02-01T08:47:52.708Z,70.34
2023-02-01T08:52:55.142Z,70.21
2023-02-01T08:57:57.457Z,70.51
2023-02-01T09:02:59.660Z,71.38
2023-02-01T09:08:01.328Z,71.93
2023-02-01T09:13:04.046Z,72.40
2023-02-01T09:18:05.731Z,72.76
2023-02-01T09:23:08.396Z,73.16
2023-02-01T09:28:10.141Z,72.80
2023-02-01T09:33:11.894Z,72.28
2023-02-01T09:38:13.427Z,71.96
2023-02-01T09:43:22.179Z,71.69
2023-02-01T09:48:32.195Z,71.24
2023-02-01T09:53:43.991Z,71.65
2023-02-01T09:59:09.262Z,70.53
2023-02-01T10:04:15.242Z,69.52
2023-02-01T10:09:41.820Z,69.44
2023-02-01T10:14:58.485Z,69.09
2023-02-01T10:20:13.641Z,68.52
2023-02-01T10:25:36.418Z,68.33
2023-02-01T10:30:46.298Z,68.17
2023-02-01T10:35:56.513Z,66.82
2023-02-01T10:41:22.599Z,67.12
2023-02-01T10:46:24.958Z,66.96
2023-02-01T10:51:32.043Z,66.79
2023-02-01T10:56:39.012Z,66.28
2023-02-01T11:01:43.001Z,66.49
2023-02-01T11:06:47.490Z,66.33
2023-02-01T11:11:49.052Z,67.28
2023-02-01T11:16:55.189Z,67.36
2023-02-01T11:22:00.562Z,66.12
2023-02-01T11:27:16.063Z,66.70
2023-02-01T11:32:25.741Z,66.62
2023-02-01T11:37:36.430Z,66.25
2023-02-01T11:42:58.721Z,66.36
2023-02-01T11:48:01.475Z,66.64
2023-02-01T11:53:29.180Z,66.64
2023-02-01T11:58:30.549Z,67.73
2023-02-01T12:03:40.922Z,67.37
2023-02-01T12:08:54.720Z,67.04
2023-02-01T12:13:59.279Z,67.08
2023-02-01T12:19:14.141Z,66.88
2023-02-01T12:24:34.087Z,66.36
2023-02-01T12:29:54.225Z,66.43
2023-02-01T12:35:32.914Z,65.68
2023-02-01T12:41:05.412Z,66.40
2023-02-01T12:46:17.436Z,67.53
2023-02-01T12:51:27.366Z,67.85
2023-02-01T12:56:47.203Z,67.80
2023-02-01T13:02:13.851Z,67.99
2023-02-01T13:07:22.340Z,68.68
2023-02-01T13:12:30.416Z,69.28
2023-02-01T13:17:34.715Z,70.21
2023-02-01T13:22:44.718Z,70.76
2023-02-01T13:27:47.446Z,70.71
2023-02-01T13:33:54.012Z,70.14
2023-02-01T13:38:37.462Z,70.22
2023-02-01T13:43:42.978Z,70.17
2023-02-01T13:48:52.527Z,70.92
2023-02-01T13:53:54.075Z,72.28
2023-02-01T13:58:55.632Z,72.64
2023-02-01T14:04:02.483Z,72.34
2023-02-01T14:09:31.389Z,73.11
2023-02-01T14:14:35.869Z,74.38
2023-02-01T14:19:38.320Z,73.94
2023-02-01T14:24:39.889Z,74.55
2023-02-01T14:29:44.664Z,75.96
2023-02-01T14:34:49.251Z,75.86
2023-02-01T14:40:15.727Z,74.95
2023-02-01T14:45:23.904Z,74.61
2023-02-01T14:50:33.406Z,74.47
2023-02-01T14:55:43.949Z,74.42
2023-02-01T15:00:57.380Z,74.03
2023-02-01T15:06:01.814Z,74.03
2023-02-01T15:11:10.378Z,74.30
2023-02-01T15:16:14.972Z,75.03
2023-02-01T15:21:28.523Z,75.86
2023-02-01T15:26:33.278Z,75.69
2023-02-01T15:31:39.680Z,75.36
2023-02-01T15:36:53.545Z,74.70
2023-02-01T15:42:16.563Z,75.17
2023-02-01T15:47:24.412Z,75.86
2023-02-01T15:52:38.486Z,75.34
2023-02-01T15:57:43.016Z,74.83
2023-02-01T16:02:58.197Z,74.58
2023-02-01T16:08:14.692Z,74.70
2023-02-01T16:13:18.085Z,75.04
2023-02-01T16:18:21.116Z,75.71
2023-02-01T16:23:22.590Z,75.69
2023-02-01T16:28:24.061Z,75.23
2023-02-01T16:33:26.289Z,75.11
2023-02-01T16:38:27.851Z,75.12
2023-02-01T16:43:29.685Z,75.42
2023-02-01T16:48:35.406Z,75.15
2023-02-01T16:53:52.363Z,74.80
2023-02-01T16:58:55.366Z,74.79
2023-02-01T17:03:57.299Z,74.56
2023-02-01T17:09:00.475Z,75.36
2023-02-01T17:14:16.112Z,74.95
2023-02-01T17:19:24.122Z,74.77
2023-02-01T17:24:39.231Z,74.76
2023-02-01T17:29:49.270Z,74.99
2023-02-01T17:34:50.931Z,75.44
2023-02-01T17:39:54.964Z,75.42
2023-02-01T17:44:59.876Z,75.42
2023-02-01T17:50:01.375Z,75.78
2023-02-01T17:55:04.739Z,76.07
2023-02-01T18:00:07.701Z,75.88
2023-02-01T18:05:24.063Z,75.78
2023-02-01T18:10:26.009Z,75.54
2023-02-01T18:15:28.247Z,75.98
2023-02-01T18:20:29.963Z,76.07
2023-02-01T18:25:37.175Z,75.74
2023-02-01T18:30:38.865Z,75.55
2023-02-01T18:35:41.226Z,75.36
2023-02-01T18:40:53.531Z,75.80
2023-02-01T18:45:55.698Z,75.33
2023-02-01T18:50:57.874Z,75.40
2023-02-01T18:55:59.862Z,75.10
2023-02-01T19:01:07.276Z,75.10
2023-02-01T19:06:09.644Z,75.56
2023-02-01T19:11:11.127Z,75.33
2023-02-01T19:16:13.851Z,74.92
2023-02-01T19:21:15.607Z,74.78
2023-02-01T19:26:18.512Z,74.78
2023-02-01T19:31:20.218Z,75.29
2023-02-01T19:36:21.886Z,74.98
2023-02-01T19:41:23.429Z,74.98
2023-02-01T19:46:28.692Z,74.77
2023-02-01T19:51:30.328Z,74.79
2023-02-01T19:56:32.069Z,75.33
2023-02-01T20:01:33.886Z,75.30
2023-02-01T20:06:39.091Z,75.27
2023-02-01T20:11:40.597Z,75.19
2023-02-01T20:16:42.880Z,75.09
2023-02-01T20:21:44.642Z,75.25
2023-02-01T20:26:49.102Z,75.77
2023-02-01T20:31:51.547Z,75.68
2023-02-01T20:36:53.086Z,75.25
2023-02-01T20:41:55.165Z,75.30
2023-02-01T20:46:56.758Z,75.44
2023-02-01T20:51:58.345Z,75.14
2023-02-01T20:56:59.823Z,75.61
2023-02-01T21:02:01.647Z,75.54
2023-02-01T21:07:03.520Z,75.21
2023-02-01T21:12:05.391Z,74.95
2023-02-01T21:17:06.883Z,75.08
2023-02-01T21:22:09.658Z,75.05
2023-02-01T21:27:11.274Z,75.58
2023-02-01T21:32:13.540Z,75.37
2023-02-01T21:37:15.040Z,74.94
2023-02-01T21:42:18.435Z,74.81
2023-02-01T21:47:24.159Z,74.81
2023-02-01T21:52:28.456Z,75.42
2023-02-01T21:57:29.980Z,75.75
2023-02-01T22:02:31.727Z,75.26
2023-02-01T22:07:36.089Z,75.11
2023-02-01T22:12:37.579Z,75.29
2023-02-01T22:17:39.100Z,75.19
2023-02-01T22:22:41.190Z,75.60
2023-02-01T22:28:30.737Z,76.01
2023-02-01T22:33:04.192Z,75.87
2023-02-01T22:38:05.966Z,75.62
2023-02-01T22:43:07.515Z,75.94
2023-02-01T22:48:09.061Z,75.57
2023-02-01T22:53:10.830Z,76.34
2023-02-01T22:58:12.876Z,76.48
2023-02-01T23:03:14.482Z,76.32
2023-02-01T23:08:16.069Z,76.01
2023-02-01T23:13:17.619Z,76.64
2023-02-01T23:18:19.206Z,77.36
2023-02-01T23:23:20.730Z,77.64
2023-02-01T23:28:22.263Z,78.35
2023-02-01T23:33:25.818Z,78.34
2023-02-01T23:38:28.442Z,79.07
2023-02-01T23:43:48.829Z,79.19
2023-02-01T23:48:53.472Z,78.67
2023-02-01T23:53:55.433Z,78.58
2023-02-01T23:58:57.163Z,79.00
